sensor_id;sensor_type;location;lat;lon;timestamp;pressure;altitude;pressure_sealevel;temperature;humidity
79709;BME280;69203;48.964;9.118;2024-01-30T00:00:59;100140.34;;;0.56;100.00
79709;BME280;69203;48.964;9.118;2024-01-30T00:02:00;100138.53;;;0.64;100.00
79709;BME280;69203;48.964;9.118;2024-01-30T00:03:00;100142.81;;;0.74;100.00
79709;BME280;69203;48.964;9.118;2024-01-30T00:04:00;100139.38;;;0.70;100.00
79709;BME280;69203;48.964;9.118;2024-01-30T00:05:00;100142.81;;;0.69;100.00
79709;BME280;69203;48.964;9.118;2024-01-30T00:06:02;100140.19;;;0.78;100.00
79709;BME280;69203;48.964;9.118;2024-01-30T00:07:03;100134.16;;;0.78;100.00
79709;BME280;69203;48.964;9.118;2024-01-30T00:08:03;100145.31;;;0.81;100.00
79709;BME280;69203;48.964;9.118;2024-01-30T00:09:05;100141.00;;;0.80;100.00
79709;BME280;69203;48.964;9.118;2024-01-30T00:10:05;100141.78;;;0.95;100.00
79709;BME280;69203;48.964;9.118;2024-01-30T00:11:07;100145.34;;;0.77;100.00
79709;BME280;69203;48.964;9.118;2024-01-30T00:12:07;100148.06;;;0.63;100.00
79709;BME280;69203;48.964;9.118;2024-01-30T00:13:07;100146.28;;;0.67;100.00
79709;BME280;69203;48.964;9.118;2024-01-30T00:14:08;100141.13;;;0.65;100.00
79709;BME280;69203;48.964;9.118;2024-01-30T00:15:08;100153.94;;;0.83;100.00
79709;BME280;69203;48.964;9.118;2024-01-30T00:16:19;100148.81;;;0.77;100.00
79709;BME280;69203;48.964;9.118;2024-01-30T00:17:20;100144.56;;;0.67;100.00
79709;BME280;69203;48.964;9.118;2024-01-30T00:18:21;100152.38;;;0.58;100.00
79709;BME280;69203;48.964;9.118;2024-01-30T00:19:21;100146.28;;;0.65;100.00
79709;BME280;69203;48.964;9.118;2024-01-30T00:20:22;100142.00;;;0.67;100.00
79709;BME280;69203;48.964;9.118;2024-01-30T00:21:22;100144.50;;;0.78;100.00
79709;BME280;69203;48.964;9.118;2024-01-30T00:22:23;100149.63;;;0.81;100.00
79709;BME280;69203;48.964;9.118;2024-01-30T00:23:23;100146.97;;;0.92;100.00
79709;BME280;69203;48.964;9.118;2024-01-30T00:24:24;100146.81;;;1.08;100.00
79709;BME280;69203;48.964;9.118;2024-01-30T00:25:25;100149.44;;;1.05;100.00
79709;BME280;69203;48.964;9.118;2024-01-30T00:26:25;100151.13;;;1.06;100.00
79709;BME280;69203;48.964;9.118;2024-01-30T00:27:26;100151.22;;;0.97;100.00
79709;BME280;69203;48.964;9.118;2024-01-30T00:28:27;100152.13;;;0.90;100.00
79709;BME280;69203;48.964;9.118;2024-01-30T00:29:27;100150.50;;;0.80;100.00
79709;BME280;69203;48.964;9.118;2024-01-30T00:30:31;100159.13;;;0.79;100.00
79709;BME280;69203;48.964;9.118;2024-01-30T00:31:31;100153.97;;;0.77;100.00
79709;BME280;69203;48.964;9.118;2024-01-30T00:32:31;100147.09;;;0.76;100.00
79709;BME280;69203;48.964;9.118;2024-01-30T00:33:32;100151.47;;;0.67;100.00
79709;BME280;69203;48.964;9.118;2024-01-30T00:34:32;100136.91;;;0.54;100.00
79709;BME280;69203;48.964;9.118;2024-01-30T00:35:32;100146.47;;;0.38;100.00
79709;BME280;69203;48.964;9.118;2024-01-30T00:36:32;100149.94;;;0.37;100.00
79709;BME280;69203;48.964;9.118;2024-01-30T00:37:34;100120.69;;;0.27;100.00
79709;BME280;69203;48.964;9.118;2024-01-30T00:38:34;100145.53;;;0.48;100.00
79709;BME280;69203;48.964;9.118;2024-01-30T00:39:34;100152.47;;;0.46;100.00
79709;BME280;69203;48.964;9.118;2024-01-30T00:40:34;100143.84;;;0.44;100.00
79709;BME280;69203;48.964;9.118;2024-01-30T00:41:35;100149.03;;;0.46;100.00
79709;BME280;69203;48.964;9.118;2024-01-30T00:42:35;100153.28;;;0.48;100.00
79709;BME280;69203;48.964;9.118;2024-01-30T00:43:35;100144.72;;;0.43;100.00
79709;BME280;69203;48.964;9.118;2024-01-30T00:44:36;100143.88;;;0.39;100.00
79709;BME280;69203;48.964;9.118;2024-01-30T00:45:38;100152.53;;;0.34;100.00
79709;BME280;69203;48.964;9.118;2024-01-30T00:46:38;100143.91;;;0.36;100.00
79709;BME280;69203;48.964;9.118;2024-01-30T00:47:39;100148.19;;;0.37;100.00
79709;BME280;69203;48.964;9.118;2024-01-30T00:48:40;100148.97;;;0.49;100.00
79709;BME280;69203;48.964;9.118;2024-01-30T00:49:40;100148.16;;;0.45;100.00
79709;BME280;69203;48.964;9.118;2024-01-30T00:50:41;100153.34;;;0.40;100.00
79709;BME280;69203;48.964;9.118;2024-01-30T00:51:41;100150.75;;;0.43;100.00
79709;BME280;69203;48.964;9.118;2024-01-30T00:52:42;100153.28;;;0.53;100.00
79709;BME280;69203;48.964;9.118;2024-01-30T00:53:45;100148.91;;;0.59;100.00
79709;BME280;69203;48.964;9.118;2024-01-30T00:54:45;100154.91;;;0.67;100.00
79709;BME280;69203;48.964;9.118;2024-01-30T00:55:45;100150.59;;;0.66;100.00
79709;BME280;69203;48.964;9.118;2024-01-30T00:56:45;100151.53;;;0.58;100.00
79709;BME280;69203;48.964;9.118;2024-01-30T00:57:46;100151.53;;;0.58;100.00
79709;BME280;69203;48.964;9.118;2024-01-30T00:58:47;100155.81;;;0.62;100.00
79709;BME280;69203;48.964;9.118;2024-01-30T00:59:47;100150.59;;;0.65;100.00
79709;BME280;69203;48.964;9.118;2024-01-30T01:00:48;100160.97;;;0.62;100.00
79709;BME280;69203;48.964;9.118;2024-01-30T01:01:48;100160.13;;;0.60;100.00
79709;BME280;69203;48.964;9.118;2024-01-30T01:02:49;100165.28;;;0.61;100.00
79709;BME280;69203;48.964;9.118;2024-01-30T01:03:49;100163.56;;;0.59;100.00
79709;BME280;69203;48.964;9.118;2024-01-30T01:04:49;100157.59;;;0.51;100.00
79709;BME280;69203;48.964;9.118;2024-01-30T01:05:50;100161.97;;;0.41;100.00
79709;BME280;69203;48.964;9.118;2024-01-30T01:06:50;100150.81;;;0.34;100.00
79709;BME280;69203;48.964;9.118;2024-01-30T01:07:50;100153.38;;;0.33;100.00
79709;BME280;69203;48.964;9.118;2024-01-30T01:08:52;100152.56;;;0.29;100.00
79709;BME280;69203;48.964;9.118;2024-01-30T01:09:52;100147.41;;;0.23;100.00
79709;BME280;69203;48.964;9.118;2024-01-30T01:10:53;100144.84;;;0.22;100.00
79709;BME280;69203;48.964;9.118;2024-01-30T01:11:53;100144.88;;;0.20;100.00
79709;BME280;69203;48.964;9.118;2024-01-30T01:12:54;100154.31;;;0.26;100.00
79709;BME280;69203;48.964;9.118;2024-01-30T01:13:54;100152.59;;;0.26;100.00
79709;BME280;69203;48.964;9.118;2024-01-30T01:14:54;100157.75;;;0.23;100.00
79709;BME280;69203;48.964;9.118;2024-01-30T01:15:54;100155.19;;;0.20;100.00
79709;BME280;69203;48.964;9.118;2024-01-30T01:16:55;100155.19;;;0.17;100.00
79709;BME280;69203;48.964;9.118;2024-01-30T01:17:55;100155.22;;;0.14;100.00
79709;BME280;69203;48.964;9.118;2024-01-30T01:18:55;100158.63;;;0.16;100.00
79709;BME280;69203;48.964;9.118;2024-01-30T01:19:55;100158.56;;;0.27;100.00
79709;BME280;69203;48.964;9.118;2024-01-30T01:20:56;100159.41;;;0.35;100.00
79709;BME280;69203;48.964;9.118;2024-01-30T01:21:56;100161.06;;;0.45;100.00
79709;BME280;69203;48.964;9.118;2024-01-30T01:22:57;100163.63;;;0.51;100.00
79709;BME280;69203;48.964;9.118;2024-01-30T01:23:57;100171.34;;;0.56;100.00
79709;BME280;69203;48.964;9.118;2024-01-30T01:25:00;100168.78;;;0.48;100.00
79709;BME280;69203;48.964;9.118;2024-01-30T01:26:00;100175.78;;;0.35;100.00
79709;BME280;69203;48.964;9.118;2024-01-30T01:27:01;100178.38;;;0.31;100.00
79709;BME280;69203;48.964;9.118;2024-01-30T01:28:01;100174.88;;;0.39;100.00
79709;BME280;69203;48.964;9.118;2024-01-30T01:29:01;100179.16;;;0.45;100.00
79709;BME280;69203;48.964;9.118;2024-01-30T01:30:04;100173.97;;;0.53;100.00
79709;BME280;69203;48.964;9.118;2024-01-30T01:31:06;100175.72;;;0.48;100.00
79709;BME280;69203;48.964;9.118;2024-01-30T01:32:06;100172.31;;;0.39;100.00
79709;BME280;69203;48.964;9.118;2024-01-30T01:33:06;100169.75;;;0.32;100.00
79709;BME280;69203;48.964;9.118;2024-01-30T01:34:06;100173.25;;;0.25;100.00
79709;BME280;69203;48.964;9.118;2024-01-30T01:35:07;100173.28;;;0.13;100.00
79709;BME280;69203;48.964;9.118;2024-01-30T01:36:07;100172.38;;;0.26;100.00
79709;BME280;69203;48.964;9.118;2024-01-30T01:37:08;100170.56;;;0.41;100.00
79709;BME280;69203;48.964;9.118;2024-01-30T01:38:08;100175.72;;;0.43;100.00
79709;BME280;69203;48.964;9.118;2024-01-30T01:39:08;100174.03;;;0.39;100.00
79709;BME280;69203;48.964;9.118;2024-01-30T01:40:08;100180.06;;;0.32;100.00
79709;BME280;69203;48.964;9.118;2024-01-30T01:41:09;100173.22;;;0.28;100.00
79709;BME280;69203;48.964;9.118;2024-01-30T01:42:09;100171.53;;;0.22;100.00
79709;BME280;69203;48.964;9.118;2024-01-30T01:43:09;100170.72;;;0.16;100.00
79709;BME280;69203;48.964;9.118;2024-01-30T01:44:09;100169.84;;;0.11;100.00
79709;BME280;69203;48.964;9.118;2024-01-30T01:45:10;100169.00;;;0.07;100.00
79709;BME280;69203;48.964;9.118;2024-01-30T01:46:10;100168.19;;;0.05;100.00
79709;BME280;69203;48.964;9.118;2024-01-30T01:47:10;100166.44;;;0.04;100.00
79709;BME280;69203;48.964;9.118;2024-01-30T01:48:11;100165.59;;;0.00;100.00
79709;BME280;69203;48.964;9.118;2024-01-30T01:49:12;100159.56;;;0.03;100.00
79709;BME280;69203;48.964;9.118;2024-01-30T01:50:16;100160.44;;;0.02;100.00
79709;BME280;69203;48.964;9.118;2024-01-30T01:51:18;100166.50;;;-0.07;100.00
79709;BME280;69203;48.964;9.118;2024-01-30T01:52:19;100163.88;;;0.01;100.00
79709;BME280;69203;48.964;9.118;2024-01-30T01:53:19;100159.53;;;0.06;100.00
79709;BME280;69203;48.964;9.118;2024-01-30T01:54:19;100172.47;;;0.02;100.00
79709;BME280;69203;48.964;9.118;2024-01-30T01:55:20;100166.47;;;-0.01;100.00
79709;BME280;69203;48.964;9.118;2024-01-30T01:56:26;100167.31;;;0.05;100.00
79709;BME280;69203;48.964;9.118;2024-01-30T01:57:27;100167.31;;;0.03;100.00
79709;BME280;69203;48.964;9.118;2024-01-30T01:58:27;100169.06;;;-0.02;100.00
79709;BME280;69203;48.964;9.118;2024-01-30T01:59:28;100169.06;;;-0.07;100.00
79709;BME280;69203;48.964;9.118;2024-01-30T02:00:30;100169.97;;;-0.18;100.00
79709;BME280;69203;48.964;9.118;2024-01-30T02:01:32;100165.66;;;-0.21;100.00
79709;BME280;69203;48.964;9.118;2024-01-30T02:02:34;100169.94;;;-0.15;100.00
79709;BME280;69203;48.964;9.118;2024-01-30T02:03:35;100166.50;;;-0.16;100.00
79709;BME280;69203;48.964;9.118;2024-01-30T02:04:36;100160.53;;;-0.22;100.00
79709;BME280;69203;48.964;9.118;2024-01-30T02:05:36;100160.47;;;-0.01;100.00
79709;BME280;69203;48.964;9.118;2024-01-30T02:06:37;100162.13;;;0.09;100.00
79709;BME280;69203;48.964;9.118;2024-01-30T02:07:38;100169.00;;;0.15;100.00
79709;BME280;69203;48.964;9.118;2024-01-30T02:08:40;100167.25;;;0.11;100.00
79709;BME280;69203;48.964;9.118;2024-01-30T02:09:41;100170.75;;;0.02;100.00
79709;BME280;69203;48.964;9.118;2024-01-30T02:10:41;100172.50;;;-0.03;100.00
79709;BME280;69203;48.964;9.118;2024-01-30T02:11:41;100169.94;;;-0.14;100.00
79709;BME280;69203;48.964;9.118;2024-01-30T02:12:43;100168.25;;;-0.21;100.00
79709;BME280;69203;48.964;9.118;2024-01-30T02:13:43;100175.16;;;-0.21;100.00
79709;BME280;69203;48.964;9.118;2024-01-30T02:14:44;100180.28;;;-0.20;100.00
79709;BME280;69203;48.964;9.118;2024-01-30T02:15:48;100176.00;;;-0.16;100.00
79709;BME280;69203;48.964;9.118;2024-01-30T02:16:49;100181.13;;;-0.10;100.00
79709;BME280;69203;48.964;9.118;2024-01-30T02:17:49;100183.75;;;-0.18;100.00
79709;BME280;69203;48.964;9.118;2024-01-30T02:18:49;100175.09;;;-0.08;100.00
79709;BME280;69203;48.964;9.118;2024-01-30T02:19:49;100181.94;;;0.01;100.00
79709;BME280;69203;48.964;9.118;2024-01-30T02:20:50;100178.56;;;-0.13;100.00
79709;BME280;69203;48.964;9.118;2024-01-30T02:21:52;100178.63;;;-0.27;100.00
79709;BME280;69203;48.964;9.118;2024-01-30T02:22:53;100182.03;;;-0.28;100.00
79709;BME280;69203;48.964;9.118;2024-01-30T02:23:54;100176.91;;;-0.38;100.00
79709;BME280;69203;48.964;9.118;2024-01-30T02:24:55;100178.63;;;-0.34;100.00
79709;BME280;69203;48.964;9.118;2024-01-30T02:25:55;100172.56;;;-0.24;100.00
79709;BME280;69203;48.964;9.118;2024-01-30T02:26:56;100176.00;;;-0.31;100.00
79709;BME280;69203;48.964;9.118;2024-01-30T02:27:57;100180.31;;;-0.29;100.00
79709;BME280;69203;48.964;9.118;2024-01-30T02:28:57;100176.88;;;-0.23;100.00
79709;BME280;69203;48.964;9.118;2024-01-30T02:29:57;100175.94;;;-0.10;100.00
79709;BME280;69203;48.964;9.118;2024-01-30T02:30:57;100176.81;;;-0.02;100.00
79709;BME280;69203;48.964;9.118;2024-01-30T02:31:58;100178.53;;;-0.07;100.00
79709;BME280;69203;48.964;9.118;2024-01-30T02:32:58;100176.84;;;-0.14;100.00
79709;BME280;69203;48.964;9.118;2024-01-30T02:33:58;100175.13;;;-0.18;100.00
79709;BME280;69203;48.964;9.118;2024-01-30T02:35:04;100173.44;;;-0.24;100.00
79709;BME280;69203;48.964;9.118;2024-01-30T02:36:04;100170.91;;;-0.37;100.00
79709;BME280;69203;48.964;9.118;2024-01-30T02:37:05;100170.91;;;-0.50;100.00
79709;BME280;69203;48.964;9.118;2024-01-30T02:38:05;100169.19;;;-0.51;100.00
79709;BME280;69203;48.964;9.118;2024-01-30T02:39:06;100164.00;;;-0.38;100.00
79709;BME280;69203;48.964;9.118;2024-01-30T02:40:06;100174.25;;;-0.20;100.00
79709;BME280;69203;48.964;9.118;2024-01-30T02:41:07;100178.56;;;-0.21;100.00
79709;BME280;69203;48.964;9.118;2024-01-30T02:42:07;100177.75;;;-0.36;100.00
79709;BME280;69203;48.964;9.118;2024-01-30T02:43:07;100175.13;;;-0.20;100.00
79709;BME280;69203;48.964;9.118;2024-01-30T02:44:07;100174.25;;;-0.13;100.00
79709;BME280;69203;48.964;9.118;2024-01-30T02:45:08;100174.22;;;-0.02;100.00
79709;BME280;69203;48.964;9.118;2024-01-30T02:46:08;100177.69;;;-0.15;100.00
79709;BME280;69203;48.964;9.118;2024-01-30T02:47:09;100172.56;;;-0.26;100.00
79709;BME280;69203;48.964;9.118;2024-01-30T02:48:09;100179.41;;;-0.10;100.00
79709;BME280;69203;48.964;9.118;2024-01-30T02:49:09;100182.81;;;0.00;100.00
79709;BME280;69203;48.964;9.118;2024-01-30T02:50:09;100181.97;;;-0.01;100.00
79709;BME280;69203;48.964;9.118;2024-01-30T02:51:10;100185.38;;;0.02;100.00
79709;BME280;69203;48.964;9.118;2024-01-30T02:52:10;100183.69;;;-0.10;100.00
79709;BME280;69203;48.964;9.118;2024-01-30T02:53:10;100184.59;;;-0.11;100.00
79709;BME280;69203;48.964;9.118;2024-01-30T02:54:10;100161.44;;;-0.38;100.00
79709;BME280;69203;48.964;9.118;2024-01-30T02:55:11;100179.47;;;-0.37;100.00
79709;BME280;69203;48.964;9.118;2024-01-30T02:56:11;100175.97;;;-0.13;100.00
79709;BME280;69203;48.964;9.118;2024-01-30T02:57:13;100180.22;;;-0.05;100.00
79709;BME280;69203;48.964;9.118;2024-01-30T02:58:13;100179.41;;;-0.11;100.00
79709;BME280;69203;48.964;9.118;2024-01-30T02:59:13;100182.88;;;-0.26;100.00
79709;BME280;69203;48.964;9.118;2024-01-30T03:00:14;100177.72;;;-0.26;100.00
79709;BME280;69203;48.964;9.118;2024-01-30T03:01:14;100181.19;;;-0.33;100.00
79709;BME280;69203;48.964;9.118;2024-01-30T03:02:14;100184.59;;;-0.17;100.00
79709;BME280;69203;48.964;9.118;2024-01-30T03:03:15;100184.56;;;-0.13;100.00
79709;BME280;69203;48.964;9.118;2024-01-30T03:04:15;100185.47;;;-0.23;100.00
79709;BME280;69203;48.964;9.118;2024-01-30T03:05:15;100186.34;;;-0.28;100.00
79709;BME280;69203;48.964;9.118;2024-01-30T03:06:16;100179.47;;;-0.42;100.00
79709;BME280;69203;48.964;9.118;2024-01-30T03:07:17;100177.78;;;-0.50;100.00
79709;BME280;69203;48.964;9.118;2024-01-30T03:08:17;100176.09;;;-0.54;100.00
79709;BME280;69203;48.964;9.118;2024-01-30T03:09:18;100170.06;;;-0.56;100.00
79709;BME280;69203;48.964;9.118;2024-01-30T03:10:18;100170.06;;;-0.55;100.00
79709;BME280;69203;48.964;9.118;2024-01-30T03:11:19;100167.47;;;-0.56;100.00
79709;BME280;69203;48.964;9.118;2024-01-30T03:12:19;100171.78;;;-0.60;100.00
79709;BME280;69203;48.964;9.118;2024-01-30T03:13:19;100161.50;;;-0.70;100.00
79709;BME280;69203;48.964;9.118;2024-01-30T03:14:20;100170.97;;;-0.69;100.00
79709;BME280;69203;48.964;9.118;2024-01-30T03:15:20;100172.63;;;-0.58;100.00
79709;BME280;69203;48.964;9.118;2024-01-30T03:16:20;100162.34;;;-0.53;100.00
79709;BME280;69203;48.964;9.118;2024-01-30T03:17:20;100157.19;;;-0.61;100.00
79709;BME280;69203;48.964;9.118;2024-01-30T03:18:21;100163.19;;;-0.54;100.00
79709;BME280;69203;48.964;9.118;2024-01-30T03:19:21;100164.00;;;-0.48;100.00
79709;BME280;69203;48.964;9.118;2024-01-30T03:20:22;100168.34;;;-0.50;100.00
79709;BME280;69203;48.964;9.118;2024-01-30T03:21:22;100158.03;;;-0.56;100.00
79709;BME280;69203;48.964;9.118;2024-01-30T03:22:22;100167.47;;;-0.44;100.00
79709;BME280;69203;48.964;9.118;2024-01-30T03:23:22;100161.44;;;-0.48;100.00
79709;BME280;69203;48.964;9.118;2024-01-30T03:24:22;100175.22;;;-0.58;100.00
79709;BME280;69203;48.964;9.118;2024-01-30T03:25:23;100166.63;;;-0.55;100.00
79709;BME280;69203;48.964;9.118;2024-01-30T03:26:23;100163.22;;;-0.65;100.00
79709;BME280;69203;48.964;9.118;2024-01-30T03:27:24;100159.78;;;-0.77;100.00
79709;BME280;69203;48.964;9.118;2024-01-30T03:28:24;100163.16;;;-0.53;100.00
79709;BME280;69203;48.964;9.118;2024-01-30T03:29:24;100161.44;;;-0.46;100.00
79709;BME280;69203;48.964;9.118;2024-01-30T03:30:24;100165.75;;;-0.53;100.00
79709;BME280;69203;48.964;9.118;2024-01-30T03:31:25;100169.19;;;-0.51;100.00
79709;BME280;69203;48.964;9.118;2024-01-30T03:32:25;100170.06;;;-0.50;100.00
79709;BME280;69203;48.964;9.118;2024-01-30T03:33:25;100167.44;;;-0.47;100.00
79709;BME280;69203;48.964;9.118;2024-01-30T03:34:27;100164.91;;;-0.50;100.00
79709;BME280;69203;48.964;9.118;2024-01-30T03:35:28;100165.75;;;-0.57;100.00
79709;BME280;69203;48.964;9.118;2024-01-30T03:36:28;100170.94;;;-0.60;100.00
79709;BME280;69203;48.964;9.118;2024-01-30T03:37:29;100164.03;;;-0.57;100.00
79709;BME280;69203;48.964;9.118;2024-01-30T03:38:29;100164.91;;;-0.50;100.00
79709;BME280;69203;48.964;9.118;2024-01-30T03:39:32;100163.16;;;-0.44;100.00
79709;BME280;69203;48.964;9.118;2024-01-30T03:40:33;100170.00;;;-0.36;100.00
79709;BME280;69203;48.964;9.118;2024-01-30T03:41:33;100163.13;;;-0.31;100.00
79709;BME280;69203;48.964;9.118;2024-01-30T03:42:33;100167.44;;;-0.36;100.00
79709;BME280;69203;48.964;9.118;2024-01-30T03:43:34;100168.31;;;-0.45;100.00
79709;BME280;69203;48.964;9.118;2024-01-30T03:44:34;100158.84;;;-0.35;100.00
79709;BME280;69203;48.964;9.118;2024-01-30T03:45:35;100170.91;;;-0.45;100.00
79709;BME280;69203;48.964;9.118;2024-01-30T03:46:36;100168.34;;;-0.57;100.00
79709;BME280;69203;48.964;9.118;2024-01-30T03:47:36;100171.78;;;-0.57;100.00
79709;BME280;69203;48.964;9.118;2024-01-30T03:48:36;100166.59;;;-0.46;100.00
79709;BME280;69203;48.964;9.118;2024-01-30T03:49:37;100174.34;;;-0.57;100.00
79709;BME280;69203;48.964;9.118;2024-01-30T03:50:37;100167.50;;;-0.53;100.00
79709;BME280;69203;48.964;9.118;2024-01-30T03:51:37;100163.16;;;-0.53;100.00
79709;BME280;69203;48.964;9.118;2024-01-30T03:52:38;100164.03;;;-0.46;100.00
79709;BME280;69203;48.964;9.118;2024-01-30T03:53:38;100160.59;;;-0.37;100.00
79709;BME280;69203;48.964;9.118;2024-01-30T03:54:39;100176.06;;;-0.37;100.00
79709;BME280;69203;48.964;9.118;2024-01-30T03:55:39;100167.47;;;-0.49;100.00
79709;BME280;69203;48.964;9.118;2024-01-30T03:56:40;100170.03;;;-0.47;100.00
79709;BME280;69203;48.964;9.118;2024-01-30T03:57:40;100167.44;;;-0.41;100.00
79709;BME280;69203;48.964;9.118;2024-01-30T03:58:40;100169.16;;;-0.34;100.00
79709;BME280;69203;48.964;9.118;2024-01-30T03:59:41;100167.44;;;-0.27;100.00
79709;BME280;69203;48.964;9.118;2024-01-30T04:00:42;100170.84;;;-0.22;100.00
79709;BME280;69203;48.964;9.118;2024-01-30T04:01:42;100170.84;;;-0.25;100.00
79709;BME280;69203;48.964;9.118;2024-01-30T04:02:42;100173.44;;;-0.28;100.00
79709;BME280;69203;48.964;9.118;2024-01-30T04:03:42;100174.28;;;-0.25;100.00
79709;BME280;69203;48.964;9.118;2024-01-30T04:04:44;100172.56;;;-0.23;100.00
79709;BME280;69203;48.964;9.118;2024-01-30T04:05:46;100165.69;;;-0.25;100.00
79709;BME280;69203;48.964;9.118;2024-01-30T04:06:46;100166.53;;;-0.25;100.00
79709;BME280;69203;48.964;9.118;2024-01-30T04:07:47;100175.16;;;-0.24;100.00
79709;BME280;69203;48.964;9.118;2024-01-30T04:08:47;100168.28;;;-0.30;100.00
79709;BME280;69203;48.964;9.118;2024-01-30T04:09:48;100174.31;;;-0.35;100.00
79709;BME280;69203;48.964;9.118;2024-01-30T04:10:48;100178.59;;;-0.31;100.00
79709;BME280;69203;48.964;9.118;2024-01-30T04:11:49;100169.19;;;-0.43;100.00
79709;BME280;69203;48.964;9.118;2024-01-30T04:12:49;100173.50;;;-0.62;100.00
79709;BME280;69203;48.964;9.118;2024-01-30T04:13:49;100166.66;;;-0.70;100.00
79709;BME280;69203;48.964;9.118;2024-01-30T04:14:50;100168.38;;;-0.69;100.00
79709;BME280;69203;48.964;9.118;2024-01-30T04:15:50;100166.66;;;-0.69;100.00
79709;BME280;69203;48.964;9.118;2024-01-30T04:16:50;100165.78;;;-0.74;100.00
79709;BME280;69203;48.964;9.118;2024-01-30T04:17:50;100163.22;;;-0.80;100.00
79709;BME280;69203;48.964;9.118;2024-01-30T04:18:51;100164.06;;;-0.82;100.00
79709;BME280;69203;48.964;9.118;2024-01-30T04:19:52;100165.78;;;-0.89;100.00
79709;BME280;69203;48.964;9.118;2024-01-30T04:20:53;100160.66;;;-0.98;100.00
79709;BME280;69203;48.964;9.118;2024-01-30T04:21:53;100155.50;;;-1.03;100.00
79709;BME280;69203;48.964;9.118;2024-01-30T04:22:53;100158.06;;;-0.92;100.00
79709;BME280;69203;48.964;9.118;2024-01-30T04:23:53;100128.03;;;-1.11;100.00
79709;BME280;69203;48.964;9.118;2024-01-30T04:24:54;100152.06;;;-0.94;100.00
79709;BME280;69203;48.964;9.118;2024-01-30T04:25:54;100145.16;;;-0.85;100.00
79709;BME280;69203;48.964;9.118;2024-01-30T04:26:54;100153.78;;;-0.81;100.00
79709;BME280;69203;48.964;9.118;2024-01-30T04:27:54;100151.19;;;-0.72;100.00
79709;BME280;69203;48.964;9.118;2024-01-30T04:28:55;100149.47;;;-0.76;100.00
79709;BME280;69203;48.964;9.118;2024-01-30T04:29:56;100153.78;;;-0.81;100.00
79709;BME280;69203;48.964;9.118;2024-01-30T04:30:56;100146.03;;;-0.87;100.00
79709;BME280;69203;48.964;9.118;2024-01-30T04:31:56;100151.22;;;-0.90;100.00
79709;BME280;69203;48.964;9.118;2024-01-30T04:32:56;100152.06;;;-0.91;100.00
79709;BME280;69203;48.964;9.118;2024-01-30T04:33:57;100147.75;;;-0.94;100.00
79709;BME280;69203;48.964;9.118;2024-01-30T04:34:57;100151.22;;;-0.90;100.00
79709;BME280;69203;48.964;9.118;2024-01-30T04:35:57;100149.47;;;-0.79;100.00
79709;BME280;69203;48.964;9.118;2024-01-30T04:36:57;100146.00;;;-0.57;100.00
79709;BME280;69203;48.964;9.118;2024-01-30T04:37:58;100157.97;;;-0.31;100.00
79709;BME280;69203;48.964;9.118;2024-01-30T04:38:58;100165.75;;;-0.48;100.00
79709;BME280;69203;48.964;9.118;2024-01-30T04:39:58;100157.16;;;-0.58;100.00
79709;BME280;69203;48.964;9.118;2024-01-30T04:40:58;100158.06;;;-0.69;100.00
79709;BME280;69203;48.964;9.118;2024-01-30T04:41:58;100155.47;;;-0.74;100.00
79709;BME280;69203;48.964;9.118;2024-01-30T04:42:59;100153.72;;;-0.63;100.00
79709;BME280;69203;48.964;9.118;2024-01-30T04:44:01;100140.84;;;-0.67;100.00
79709;BME280;69203;48.964;9.118;2024-01-30T04:45:01;100149.41;;;-0.52;100.00
79709;BME280;69203;48.964;9.118;2024-01-30T04:46:02;100162.31;;;-0.52;100.00
79709;BME280;69203;48.964;9.118;2024-01-30T04:47:02;100164.03;;;-0.63;100.00
79709;BME280;69203;48.964;9.118;2024-01-30T04:48:03;100160.66;;;-0.69;100.00
79709;BME280;69203;48.964;9.118;2024-01-30T04:49:03;100158.91;;;-0.76;100.00
79709;BME280;69203;48.964;9.118;2024-01-30T04:50:04;100165.78;;;-0.78;100.00
79709;BME280;69203;48.964;9.118;2024-01-30T04:51:06;100164.06;;;-0.73;100.00
79709;BME280;69203;48.964;9.118;2024-01-30T04:52:06;100164.91;;;-0.68;100.00
79709;BME280;69203;48.964;9.118;2024-01-30T04:53:06;100159.78;;;-0.64;100.00
79709;BME280;69203;48.964;9.118;2024-01-30T04:54:09;100168.34;;;-0.63;100.00
79709;BME280;69203;48.964;9.118;2024-01-30T04:55:09;100165.75;;;-0.63;100.00
79709;BME280;69203;48.964;9.118;2024-01-30T04:56:09;100163.19;;;-0.74;100.00
79709;BME280;69203;48.964;9.118;2024-01-30T04:57:09;100164.06;;;-0.84;100.00
79709;BME280;69203;48.964;9.118;2024-01-30T04:58:12;100161.53;;;-0.90;100.00
79709;BME280;69203;48.964;9.118;2024-01-30T04:59:12;100165.81;;;-0.92;100.00
79709;BME280;69203;48.964;9.118;2024-01-30T05:00:12;100160.66;;;-0.97;100.00
79709;BME280;69203;48.964;9.118;2024-01-30T05:01:16;100163.22;;;-1.00;100.00
79709;BME280;69203;48.964;9.118;2024-01-30T05:02:16;100158.94;;;-1.02;100.00
79709;BME280;69203;48.964;9.118;2024-01-30T05:03:17;100158.06;;;-1.04;100.00
79709;BME280;69203;48.964;9.118;2024-01-30T05:04:17;100159.78;;;-1.05;100.00
79709;BME280;69203;48.964;9.118;2024-01-30T05:05:17;100157.22;;;-1.05;100.00
79709;BME280;69203;48.964;9.118;2024-01-30T05:06:27;100164.94;;;-1.05;100.00
79709;BME280;69203;48.964;9.118;2024-01-30T05:07:28;100161.50;;;-1.10;100.00
79709;BME280;69203;48.964;9.118;2024-01-30T05:08:28;100165.81;;;-1.06;100.00
79709;BME280;69203;48.964;9.118;2024-01-30T05:09:30;100160.63;;;-1.00;100.00
79709;BME280;69203;48.964;9.118;2024-01-30T05:10:30;100161.53;;;-0.96;100.00
79709;BME280;69203;48.964;9.118;2024-01-30T05:11:30;100165.81;;;-0.88;100.00
79709;BME280;69203;48.964;9.118;2024-01-30T05:12:31;100181.25;;;-0.83;100.00
79709;BME280;69203;48.964;9.118;2024-01-30T05:13:31;100179.56;;;-0.86;100.00
79709;BME280;69203;48.964;9.118;2024-01-30T05:14:31;100184.69;;;-0.82;100.00